Time;durP1;ratioP1;P1;durP2;ratioP2;P2;SDS_P1;SDS_P2;PMS_P1;PMS_P2;Temp;Humidity;BMP_temperature;BMP_pressure;BME280_temperature;BME280_humidity;BME280_pressure;Samples;Min_cycle;Max_cycle;Signal;HPM_P1;HPM_P2
2021/06/22 00:02:23;;;;;;;8.93;3.38;;;14.90;99.90;;;;;;5060521;28;20041;-73
2021/06/22 00:04:49;;;;;;;9.10;3.53;;;14.90;99.90;;;;;;5037955;28;20073;-72
2021/06/22 00:07:19;;;;;;;7.03;3.30;;;14.90;99.90;;;;;;5055449;28;20076;-72
2021/06/22 00:09:47;;;;;;;6.72;2.75;;;14.90;99.90;;;;;;5059758;28;20781;-71
2021/06/22 00:12:14;;;;;;;7.53;2.97;;;14.80;99.90;;;;;;5062200;28;20053;-72
2021/06/22 00:14:42;;;;;;;7.43;3.27;;;14.80;99.90;;;;;;5055915;28;20060;-72
2021/06/22 00:17:09;;;;;;;6.68;3.20;;;14.80;99.90;;;;;;5044672;28;20778;-72
2021/06/22 00:19:36;;;;;;;10.13;3.40;;;14.70;99.90;;;;;;5055604;28;20044;-72
2021/06/22 00:22:03;;;;;;;9.75;3.40;;;14.70;99.90;;;;;;5051253;28;20076;-71
2021/06/22 00:24:30;;;;;;;8.48;3.80;;;14.60;99.90;;;;;;5066496;28;20083;-72
2021/06/22 00:26:56;;;;;;;8.52;3.33;;;14.60;99.90;;;;;;5034223;28;20535;-72
2021/06/22 00:29:24;;;;;;;10.68;3.80;;;14.60;99.90;;;;;;5056410;28;20077;-73
2021/06/22 00:31:51;;;;;;;9.70;3.10;;;14.50;99.90;;;;;;5050154;28;20111;-71
2021/06/22 00:34:18;;;;;;;8.40;3.50;;;14.50;99.90;;;;;;5049694;28;20053;-71
2021/06/22 00:36:45;;;;;;;9.52;3.40;;;14.50;99.90;;;;;;5057079;28;20353;-71
2021/06/22 00:39:12;;;;;;;9.98;3.20;;;14.50;99.90;;;;;;5049315;28;20144;-72
2021/06/22 00:41:39;;;;;;;7.93;3.20;;;14.50;99.90;;;;;;5048188;28;20048;-73
2021/06/22 00:44:07;;;;;;;7.55;3.08;;;14.50;99.90;;;;;;5049039;28;20044;-72
2021/06/22 00:46:35;;;;;;;8.32;3.35;;;14.50;99.90;;;;;;5057666;28;20076;-71
2021/06/22 00:49:04;;;;;;;7.60;3.25;;;14.50;99.90;;;;;;5033501;28;20053;-72
2021/06/22 00:51:30;;;;;;;;;;;14.50;99.90;;;;;;5060824;28;20092;-73
2021/06/22 00:53:58;;;;;;;6.85;3.78;;;14.40;99.90;;;;;;5058341;28;20058;-71
2021/06/22 00:56:25;;;;;;;8.23;3.00;;;14.40;99.90;;;;;;5058372;28;20102;-71
2021/06/22 00:58:52;;;;;;;8.25;3.03;;;14.40;99.90;;;;;;5067163;28;21987;-72
2021/06/22 01:01:19;;;;;;;7.45;3.03;;;14.40;99.90;;;;;;5056270;28;20048;-72
2021/06/22 01:03:45;;;;;;;7.25;3.20;;;14.40;99.90;;;;;;5042259;28;20465;-71
2021/06/22 01:06:12;;;;;;;8.90;3.65;;;14.30;99.90;;;;;;5045955;28;20041;-72
2021/06/22 01:08:40;;;;;;;5.88;2.97;;;14.30;99.90;;;;;;5056357;28;20084;-71
2021/06/22 01:11:07;;;;;;;5.60;3.15;;;14.30;99.90;;;;;;5053821;28;21047;-71
2021/06/22 01:13:34;;;;;;;7.90;4.13;;;14.30;99.90;;;;;;5049126;28;20138;-71
2021/06/22 01:16:00;;;;;;;7.80;3.35;;;14.20;99.90;;;;;;5033563;28;20130;-71
2021/06/22 01:18:27;;;;;;;8.25;3.30;;;14.20;99.90;;;;;;5049158;28;20508;-71
2021/06/22 01:20:56;;;;;;;8.10;3.28;;;14.20;99.90;;;;;;5051203;28;20045;-71
2021/06/22 01:23:23;;;;;;;8.43;3.70;;;14.20;99.90;;;;;;5054798;28;20195;-72
2021/06/22 01:25:50;;;;;;;6.57;2.95;;;14.20;99.90;;;;;;5056835;28;20107;-71
2021/06/22 01:28:16;;;;;;;6.55;3.30;;;14.20;99.90;;;;;;5055759;28;20080;-71
2021/06/22 01:30:44;;;;;;;9.13;3.30;;;14.20;99.90;;;;;;5056107;28;20515;-71
2021/06/22 01:33:10;;;;;;;9.48;3.20;;;14.20;99.90;;;;;;5050533;28;20095;-71
2021/06/22 01:35:37;;;;;;;6.60;3.60;;;14.10;99.90;;;;;;5056618;28;20081;-71
2021/06/22 01:38:07;;;;;;;8.23;3.17;;;14.10;99.90;;;;;;5042852;28;20084;-71
2021/06/22 01:40:46;;;;;;;6.38;3.00;;;14.10;99.90;;;;;;5047371;28;20115;-71
2021/06/22 01:43:13;;;;;;;7.97;3.47;;;14.10;99.90;;;;;;5069276;28;20126;-72
2021/06/22 01:45:40;;;;;;;8.07;3.30;;;14.10;99.90;;;;;;5037854;28;20118;-72
2021/06/22 01:48:07;;;;;;;9.00;3.53;;;14.00;99.90;;;;;;5069777;28;20094;-71
2021/06/22 01:50:34;;;;;;;6.87;3.30;;;14.00;99.90;;;;;;5051398;28;20056;-72
2021/06/22 01:53:01;;;;;;;10.88;3.42;;;13.90;99.90;;;;;;5057361;28;20398;-72
2021/06/22 01:55:39;;;;;;;6.68;3.20;;;13.90;99.90;;;;;;5049424;28;20083;-71
2021/06/22 01:58:12;;;;;;;8.80;3.40;;;13.90;99.90;;;;;;5043050;28;20044;-72
2021/06/22 02:00:40;;;;;;;6.88;3.20;;;13.90;99.90;;;;;;5050693;28;20120;-71
2021/06/22 02:03:12;;;;;;;6.53;2.90;;;13.90;99.90;;;;;;5053654;28;20564;-72
2021/06/22 02:05:39;;;;;;;10.38;3.33;;;13.90;99.90;;;;;;5059777;28;20041;-71
2021/06/22 02:08:06;;;;;;;7.55;3.10;;;13.90;99.90;;;;;;5066267;28;20084;-71
2021/06/22 02:10:32;;;;;;;6.40;3.60;;;13.90;99.90;;;;;;5059268;28;20073;-71
2021/06/22 02:12:59;;;;;;;6.80;3.55;;;13.80;99.90;;;;;;5030078;28;20049;-71
2021/06/22 02:15:26;;;;;;;7.45;3.47;;;13.80;99.90;;;;;;5055174;28;20420;-71
2021/06/22 02:17:54;;;;;;;6.57;3.20;;;13.90;99.90;;;;;;5044358;28;20126;-72
2021/06/22 02:20:20;;;;;;;5.43;3.22;;;13.80;99.90;;;;;;5058513;28;20045;-71
2021/06/22 02:22:48;;;;;;;8.52;3.60;;;13.80;99.90;;;;;;5047329;28;20052;-71
2021/06/22 02:25:15;;;;;;;7.10;3.22;;;13.80;99.90;;;;;;5063200;28;20522;-71
2021/06/22 02:27:43;;;;;;;9.52;3.30;;;13.80;99.90;;;;;;5049557;28;20081;-73
2021/06/22 02:30:19;;;;;;;7.90;3.73;;;13.80;99.90;;;;;;5055462;28;20076;-71
2021/06/22 02:32:46;;;;;;;6.85;3.33;;;13.80;99.90;;;;;;5045289;28;20554;-72
2021/06/22 02:35:13;;;;;;;6.72;3.63;;;13.80;99.90;;;;;;5044755;28;20091;-71
2021/06/22 02:37:42;;;;;;;8.65;3.40;;;13.80;99.90;;;;;;5047054;28;20049;-71
2021/06/22 02:40:11;;;;;;;9.07;3.45;;;13.80;99.90;;;;;;5046420;28;20052;-72
2021/06/22 02:42:38;;;;;;;8.15;3.47;;;13.80;99.90;;;;;;5046921;28;20106;-71
2021/06/22 02:45:06;;;;;;;7.37;3.33;;;13.80;99.90;;;;;;5054685;28;20083;-70
2021/06/22 02:47:32;;;;;;;6.65;3.30;;;13.80;99.90;;;;;;5051963;28;20073;-71
2021/06/22 02:49:59;;;;;;;6.63;2.92;;;13.80;99.90;;;;;;5035175;28;20077;-71
2021/06/22 02:52:26;;;;;;;8.70;3.13;;;13.80;99.90;;;;;;5034074;28;20140;-72
2021/06/22 02:55:21;;;;;;;7.10;3.60;;;13.80;99.90;;;;;;5047628;28;20542;-71
2021/06/22 02:57:55;;;;;;;7.07;3.70;;;13.80;99.90;;;;;;5048722;28;20489;-71
2021/06/22 03:00:27;;;;;;;8.57;3.63;;;13.80;99.90;;;;;;5038701;28;20071;-72
2021/06/22 03:02:55;;;;;;;7.72;3.58;;;13.70;99.90;;;;;;5052808;28;20087;-71
2021/06/22 03:05:22;;;;;;;8.48;3.10;;;13.70;99.90;;;;;;5057248;28;20083;-71
2021/06/22 03:07:50;;;;;;;8.70;3.45;;;13.70;99.90;;;;;;5050230;28;20095;-72
2021/06/22 03:10:19;;;;;;;9.13;3.03;;;13.80;99.90;;;;;;5053416;28;20084;-71
2021/06/22 03:12:45;;;;;;;8.70;3.58;;;13.70;99.90;;;;;;5033458;28;20496;-72
2021/06/22 03:15:14;;;;;;;6.75;2.75;;;13.70;99.90;;;;;;5054471;28;20076;-72
2021/06/22 03:17:41;;;;;;;6.70;3.22;;;13.80;99.90;;;;;;5055430;28;20075;-71
2021/06/22 03:20:10;;;;;;;6.60;3.30;;;13.80;99.90;;;;;;5051847;28;20476;-71
2021/06/22 03:22:37;;;;;;;6.82;3.33;;;13.80;99.90;;;;;;5051430;28;20132;-71
2021/06/22 03:25:09;;;;;;;7.78;3.20;;;13.80;99.90;;;;;;5033982;28;20045;-72
2021/06/22 03:27:36;;;;;;;8.18;3.95;;;13.80;99.90;;;;;;5040241;28;20465;-72
2021/06/22 03:30:09;;;;;;;7.22;4.20;;;13.80;99.90;;;;;;5063332;28;20090;-71
2021/06/22 03:32:37;;;;;;;7.57;3.45;;;13.80;99.90;;;;;;5035154;28;20505;-71
2021/06/22 03:35:08;;;;;;;7.63;3.90;;;13.80;99.90;;;;;;5055610;28;20110;-71
2021/06/22 03:37:35;;;;;;;8.10;3.65;;;13.80;99.90;;;;;;5029954;28;20845;-72
2021/06/22 03:40:05;;;;;;;13.35;4.10;;;13.80;99.90;;;;;;5045173;28;20487;-71
2021/06/22 03:42:34;;;;;;;8.52;3.58;;;13.80;99.90;;;;;;5049052;28;20125;-71
2021/06/22 03:45:06;;;;;;;8.23;3.78;;;13.70;99.90;;;;;;5046403;28;20076;-73
2021/06/22 03:47:34;;;;;;;9.52;4.30;;;13.70;99.90;;;;;;5051488;28;20142;-72
2021/06/22 03:50:03;;;;;;;9.43;3.63;;;13.70;99.90;;;;;;5017250;28;20118;-72
2021/06/22 03:52:30;;;;;;;6.43;3.53;;;13.70;99.90;;;;;;5045641;28;20323;-72
2021/06/22 03:54:56;;;;;;;8.88;3.83;;;13.70;99.90;;;;;;5062616;28;20071;-73
2021/06/22 03:57:23;;;;;;;8.75;3.67;;;13.70;99.90;;;;;;5047532;28;20073;-72
2021/06/22 03:59:53;;;;;;;8.48;3.97;;;13.70;99.90;;;;;;5043460;28;20068;-73
2021/06/22 04:02:24;;;;;;;12.70;4.00;;;13.70;99.90;;;;;;5049907;28;20053;-72
2021/06/22 04:04:51;;;;;;;9.73;3.70;;;13.70;99.90;;;;;;5050363;28;20465;-72
2021/06/22 04:07:17;;;;;;;8.18;3.70;;;13.70;99.90;;;;;;5055884;28;20084;-71
2021/06/22 04:09:44;;;;;;;7.85;3.83;;;13.70;99.90;;;;;;5057902;28;20380;-72
2021/06/22 04:12:11;;;;;;;10.00;4.00;;;13.70;99.90;;;;;;5053748;28;20053;-71
2021/06/22 04:14:38;;;;;;;8.23;3.75;;;13.70;99.90;;;;;;5025148;28;20051;-72
2021/06/22 04:17:05;;;;;;;9.45;3.78;;;13.70;99.90;;;;;;5051856;28;20445;-72
2021/06/22 04:19:32;;;;;;;6.90;3.40;;;13.70;99.90;;;;;;5063316;28;20890;-72
2021/06/22 04:21:58;;;;;;;10.05;3.72;;;13.70;99.90;;;;;;5053023;28;20087;-72
2021/06/22 04:24:25;;;;;;;9.93;3.78;;;13.70;99.90;;;;;;5053775;28;20142;-70
2021/06/22 04:26:52;;;;;;;8.38;3.65;;;13.70;99.90;;;;;;5049755;28;20083;-72
2021/06/22 04:29:19;;;;;;;10.38;3.58;;;13.70;99.90;;;;;;5050024;28;20045;-72
2021/06/22 04:31:45;;;;;;;11.43;3.60;;;13.80;99.90;;;;;;5040262;28;20140;-71
2021/06/22 04:34:12;;;;;;;9.98;4.03;;;13.80;99.90;;;;;;5042760;28;20053;-72
2021/06/22 04:36:39;;;;;;;11.55;3.67;;;13.90;99.90;;;;;;5043243;28;20132;-73
2021/06/22 04:39:06;;;;;;;9.85;4.38;;;14.00;99.90;;;;;;5046497;28;20132;-72
2021/06/22 04:41:32;;;;;;;11.23;4.35;;;14.00;99.90;;;;;;5023701;28;20048;-72
2021/06/22 04:43:59;;;;;;;8.93;4.03;;;14.00;99.90;;;;;;5052242;28;20084;-71
2021/06/22 04:46:27;;;;;;;7.95;3.90;;;14.10;99.90;;;;;;5040672;28;20048;-72
2021/06/22 04:48:53;;;;;;;8.77;4.60;;;14.20;99.90;;;;;;5038335;28;20053;-72
2021/06/22 04:51:20;;;;;;;11.05;4.65;;;14.30;99.90;;;;;;5043036;28;20052;-71
2021/06/22 04:53:47;;;;;;;10.02;4.22;;;14.30;99.90;;;;;;5050261;28;20119;-73
2021/06/22 04:56:14;;;;;;;11.10;4.57;;;14.40;99.90;;;;;;5054583;28;20154;-73
2021/06/22 04:58:41;;;;;;;12.90;4.80;;;14.50;99.90;;;;;;5056311;28;20049;-71
2021/06/22 05:01:07;;;;;;;10.07;5.00;;;14.60;99.90;;;;;;5051580;28;20056;-72
2021/06/22 05:03:35;;;;;;;10.57;5.53;;;14.70;99.90;;;;;;5063889;28;20106;-72
2021/06/22 05:06:02;;;;;;;11.47;5.83;;;14.70;99.90;;;;;;5060817;28;20475;-72
2021/06/22 05:08:29;;;;;;;12.38;6.07;;;14.80;99.90;;;;;;5048398;28;20094;-72
2021/06/22 05:10:56;;;;;;;12.43;6.40;;;14.80;99.90;;;;;;5055661;28;20085;-72
2021/06/22 05:13:22;;;;;;;14.70;6.95;;;14.80;99.90;;;;;;5043897;28;20488;-72
2021/06/22 05:15:49;;;;;;;11.70;6.00;;;14.80;99.90;;;;;;5033221;28;20071;-72
2021/06/22 05:18:16;;;;;;;10.45;5.40;;;14.80;99.90;;;;;;5046145;28;20045;-72
2021/06/22 05:20:43;;;;;;;11.75;6.07;;;14.70;99.90;;;;;;5055888;28;20041;-72
2021/06/22 05:23:09;;;;;;;11.80;6.43;;;14.80;99.90;;;;;;5051557;28;20409;-71
2021/06/22 05:25:39;;;;;;;17.83;7.05;;;14.80;99.90;;;;;;5070284;28;20519;-71
2021/06/22 05:28:06;;;;;;;15.43;7.45;;;14.80;99.90;;;;;;5049923;28;20080;-72
2021/06/22 05:30:33;;;;;;;14.50;7.38;;;14.80;99.90;;;;;;5058227;28;20041;-71
2021/06/22 05:33:00;;;;;;;13.65;7.75;;;14.90;99.90;;;;;;5037140;28;20388;-71
2021/06/22 05:35:52;;;;;;;12.67;6.87;;;15.00;99.90;;;;;;5039925;28;20161;-72
2021/06/22 05:38:19;;;;;;;14.88;7.72;;;15.00;99.90;;;;;;5049940;28;20123;-71
2021/06/22 05:40:46;;;;;;;14.70;8.07;;;15.10;99.90;;;;;;5050687;28;20045;-71
2021/06/22 05:43:13;;;;;;;15.15;8.10;;;15.20;99.90;;;;;;5056425;28;20041;-71
2021/06/22 05:45:39;;;;;;;18.58;8.95;;;15.30;99.90;;;;;;5031668;28;20065;-71
2021/06/22 05:48:37;;;;;;;13.45;8.55;;;15.40;99.90;;;;;;5057762;28;20121;-72
2021/06/22 05:51:04;;;;;;;;;;;15.50;99.90;;;;;;5043995;28;20107;-72
2021/06/22 05:53:31;;;;;;;17.20;8.73;;;15.60;99.90;;;;;;5028204;28;19921;-72
2021/06/22 05:55:57;;;;;;;16.80;8.95;;;15.60;99.90;;;;;;5029363;28;20533;-72
2021/06/22 05:58:24;;;;;;;14.60;8.50;;;15.60;99.90;;;;;;5028113;28;20098;-72
2021/06/22 06:00:51;;;;;;;16.15;9.02;;;15.50;99.90;;;;;;5025615;28;20077;-72
2021/06/22 06:03:18;;;;;;;18.38;10.02;;;15.50;99.90;;;;;;5028262;28;20127;-71
2021/06/22 06:05:44;;;;;;;18.10;9.30;;;15.40;99.90;;;;;;5027175;28;20072;-71
2021/06/22 06:08:11;;;;;;;19.60;10.52;;;15.30;99.90;;;;;;5029869;28;20080;-72
2021/06/22 06:10:39;;;;;;;16.08;8.77;;;15.20;99.90;;;;;;5027722;28;20081;-72
2021/06/22 06:13:05;;;;;;;15.93;10.10;;;15.20;99.90;;;;;;5026998;28;20069;-71
2021/06/22 06:15:32;;;;;;;20.73;9.48;;;15.10;99.90;;;;;;5011540;28;20722;-71
2021/06/22 06:17:59;;;;;;;17.95;9.57;;;15.10;99.90;;;;;;5027008;28;20046;-71
2021/06/22 06:20:28;;;;;;;16.73;9.00;;;15.10;99.90;;;;;;5030950;28;20045;-71
2021/06/22 06:22:55;;;;;;;16.75;9.82;;;15.10;99.90;;;;;;5028053;28;20053;-71
2021/06/22 06:26:03;;;;;;;15.53;9.90;;;15.00;99.90;;;;;;5028283;28;20810;-72
2021/06/22 06:28:33;;;;;;;;;;;15.00;99.90;;;;;;5027670;28;20080;-71
2021/06/22 06:31:00;;;;;;;16.23;8.98;;;15.00;99.90;;;;;;5031473;28;19920;-72
2021/06/22 06:33:27;;;;;;;16.90;9.70;;;15.00;99.90;;;;;;5024037;28;20084;-72
2021/06/22 06:35:54;;;;;;;18.67;9.55;;;15.00;99.90;;;;;;5029013;28;20116;-72
2021/06/22 06:38:21;;;;;;;16.08;10.05;;;15.00;99.90;;;;;;5029821;28;20084;-72
2021/06/22 06:40:48;;;;;;;17.73;9.45;;;15.00;99.90;;;;;;5030077;28;20453;-72
2021/06/22 06:43:15;;;;;;;19.73;10.07;;;15.00;99.90;;;;;;5027286;28;20109;-73
2021/06/22 06:45:42;;;;;;;19.48;10.40;;;15.00;99.90;;;;;;5026981;28;20143;-72
2021/06/22 06:48:09;;;;;;;19.48;9.98;;;15.00;99.90;;;;;;5007577;28;20084;-72
2021/06/22 06:50:35;;;;;;;19.85;10.25;;;15.10;99.90;;;;;;5027914;28;20123;-73
2021/06/22 06:53:02;;;;;;;19.50;10.80;;;15.10;99.90;;;;;;5026241;28;20480;-72
2021/06/22 06:55:32;;;;;;;16.88;10.20;;;15.10;99.90;;;;;;5030776;28;20557;-71
2021/06/22 06:58:02;;;;;;;15.50;9.85;;;15.20;99.90;;;;;;5027196;28;20077;-71
2021/06/22 07:00:31;;;;;;;16.60;10.23;;;15.20;99.90;;;;;;5043052;28;20049;-72
2021/06/22 07:02:58;;;;;;;19.80;10.95;;;15.20;99.90;;;;;;5028332;28;20061;-72
2021/06/22 07:05:47;;;;;;;18.83;11.53;;;15.20;99.90;;;;;;5027264;28;20143;-71
2021/06/22 07:08:18;;;;;;;21.05;11.20;;;15.30;99.90;;;;;;5008303;28;20039;-71
2021/06/22 07:10:45;;;;;;;17.80;11.15;;;15.30;99.90;;;;;;5033666;28;20080;-71
2021/06/22 07:13:17;;;;;;;19.95;11.95;;;15.30;99.90;;;;;;5031969;28;20136;-71
2021/06/22 07:15:47;;;;;;;21.73;11.50;;;15.30;99.90;;;;;;5033253;28;20053;-72
2021/06/22 07:18:14;;;;;;;21.77;11.48;;;15.30;99.90;;;;;;5034088;28;20049;-71
2021/06/22 07:20:41;;;;;;;17.13;11.10;;;15.40;99.90;;;;;;5029339;28;20045;-71
2021/06/22 07:23:08;;;;;;;17.08;11.00;;;15.40;99.90;;;;;;5017588;28;20426;-72
2021/06/22 07:25:35;;;;;;;20.48;11.05;;;15.40;99.90;;;;;;5028470;28;20076;-72
2021/06/22 07:28:03;;;;;;;17.45;10.85;;;15.50;99.90;;;;;;5031570;28;20135;-72
2021/06/22 07:30:30;;;;;;;19.30;10.60;;;15.50;99.90;;;;;;5033012;28;20120;-72
2021/06/22 07:32:57;;;;;;;17.02;10.63;;;15.50;99.90;;;;;;5030027;28;20129;-71
2021/06/22 07:35:29;;;;;;;19.80;11.35;;;15.60;99.90;;;;;;5030284;28;20083;-71
2021/06/22 07:37:55;;;;;;;21.90;12.25;;;15.60;99.90;;;;;;5031152;28;20080;-72
2021/06/22 07:40:22;;;;;;;16.88;10.73;;;15.60;99.90;;;;;;5012690;28;20748;-71
2021/06/22 07:42:50;;;;;;;19.67;11.38;;;15.70;99.90;;;;;;5031807;28;20076;-71
2021/06/22 07:45:17;;;;;;;21.42;11.70;;;15.70;99.90;;;;;;5029680;28;20076;-71
2021/06/22 07:47:45;;;;;;;;;;;15.80;99.90;;;;;;5033281;28;20061;-72
2021/06/22 07:50:13;;;;;;;18.52;10.07;;;15.80;99.90;;;;;;5033885;28;19924;-72
2021/06/22 07:52:41;;;;;;;17.80;10.23;;;15.80;99.90;;;;;;5030133;28;20073;-72
2021/06/22 07:55:14;;;;;;;;;;;15.90;99.90;;;;;;5032453;28;20096;-71
2021/06/22 07:57:49;;;;;;;18.90;10.20;;;16.00;99.90;;;;;;5031584;28;19929;-72
2021/06/22 08:01:08;;;;;;;18.67;10.95;;;16.00;99.90;;;;;;5031200;28;20100;-72
2021/06/22 08:03:15;;;;;;;17.05;10.70;;;16.20;99.90;;;;;;5023659;28;20131;-71
2021/06/22 08:05:44;;;;;;;16.98;10.50;;;16.30;99.90;;;;;;5033054;28;20068;-72
2021/06/22 08:08:13;;;;;;;17.85;10.45;;;16.40;99.90;;;;;;5030406;28;20084;-71
2021/06/22 08:10:41;;;;;;;17.08;9.93;;;16.50;99.90;;;;;;5032722;28;20045;-72
2021/06/22 08:13:09;;;;;;;16.95;10.75;;;16.50;99.90;;;;;;5030860;28;20095;-73
2021/06/22 08:15:37;;;;;;;18.83;10.77;;;16.50;99.90;;;;;;5031180;28;20084;-72
2021/06/22 08:18:05;;;;;;;18.52;10.25;;;16.50;99.90;;;;;;5031105;28;20123;-72
2021/06/22 08:20:32;;;;;;;15.35;10.02;;;16.40;99.90;;;;;;5030894;28;20132;-72
2021/06/22 08:22:59;;;;;;;18.30;10.57;;;16.40;99.90;;;;;;5029839;28;20756;-71
2021/06/22 08:25:27;;;;;;;15.18;9.60;;;16.30;99.90;;;;;;5033421;28;20327;-71
2021/06/22 08:27:54;;;;;;;;;;;16.30;99.90;;;;;;5036853;28;20111;-71
2021/06/22 08:30:24;;;;;;;14.75;8.65;;;16.30;99.90;;;;;;5031527;28;20025;-73
2021/06/22 08:32:51;;;;;;;23.67;9.88;;;16.30;99.90;;;;;;5028784;28;20049;-72
2021/06/22 08:35:18;;;;;;;17.00;8.48;;;16.30;99.90;;;;;;5035135;28;20080;-71
2021/06/22 08:37:46;;;;;;;;;;;16.30;99.90;;;;;;5031787;28;20045;-72
2021/06/22 08:40:13;;;;;;;16.70;9.32;;;16.30;99.90;;;;;;5033591;28;19921;-72
2021/06/22 08:42:42;;;;;;;16.27;9.13;;;16.30;99.90;;;;;;5029808;28;20128;-71
2021/06/22 08:45:14;;;;;;;16.73;9.82;;;16.30;99.90;;;;;;5028051;28;20658;-71
2021/06/22 08:47:41;;;;;;;13.30;8.98;;;16.20;99.90;;;;;;5027659;28;20560;-71
2021/06/22 08:50:10;;;;;;;17.90;8.68;;;16.30;99.90;;;;;;5027898;28;20085;-72
2021/06/22 08:52:37;;;;;;;17.80;8.80;;;16.30;99.90;;;;;;5030457;28;20435;-71
2021/06/22 08:55:07;;;;;;;14.75;8.25;;;16.30;99.90;;;;;;5032164;28;20480;-71
2021/06/22 08:57:35;;;;;;;17.88;9.40;;;16.30;99.90;;;;;;5033732;28;20755;-71
2021/06/22 09:00:04;;;;;;;15.15;8.55;;;16.30;99.90;;;;;;5031544;28;20184;-71
2021/06/22 09:02:33;;;;;;;14.95;9.07;;;16.30;99.90;;;;;;5033750;28;20069;-71
2021/06/22 09:05:01;;;;;;;13.52;8.88;;;16.30;99.90;;;;;;5034631;28;20064;-72
2021/06/22 09:07:44;;;;;;;13.43;8.30;;;16.30;99.90;;;;;;5037256;28;20465;-71
2021/06/22 09:10:21;;;;;;;12.07;8.15;;;16.40;99.90;;;;;;5034502;28;20076;-71
2021/06/22 09:12:48;;;;;;;15.57;9.00;;;16.40;99.90;;;;;;5031912;28;20456;-72
2021/06/22 09:15:24;;;;;;;13.27;7.88;;;16.50;99.90;;;;;;5052974;28;20049;-71
2021/06/22 09:17:52;;;;;;;13.60;8.18;;;16.70;99.90;;;;;;5028277;28;20051;-72
2021/06/22 09:20:42;;;;;;;17.80;8.27;;;16.80;99.90;;;;;;5024595;28;20464;-72
2021/06/22 09:23:17;;;;;;;14.15;7.97;;;16.80;99.90;;;;;;5042113;28;20127;-71
2021/06/22 09:25:47;;;;;;;11.93;7.65;;;17.00;99.90;;;;;;5030413;28;20072;-72
2021/06/22 09:28:16;;;;;;;16.27;8.13;;;17.10;99.90;;;;;;5029453;28;20069;-72
2021/06/22 09:30:45;;;;;;;13.18;7.28;;;17.10;99.90;;;;;;5015202;28;20080;-72
2021/06/22 09:33:22;;;;;;;13.98;7.47;;;17.20;99.90;;;;;;5033666;28;20045;-72
2021/06/22 09:35:57;;;;;;;16.10;8.18;;;17.20;99.90;;;;;;5033764;28;20088;-72
2021/06/22 09:38:28;;;;;;;12.60;6.97;;;17.30;99.90;;;;;;5028777;28;20844;-71
2021/06/22 09:41:08;;;;;;;11.02;6.28;;;17.30;99.90;;;;;;5030993;28;20045;-72
2021/06/22 09:44:01;;;;;;;13.32;5.90;;;17.20;99.90;;;;;;5033969;28;20065;-72
2021/06/22 09:46:37;;;;;;;10.88;5.88;;;17.10;99.90;;;;;;5029261;28;20049;-72
2021/06/22 09:49:09;;;;;;;9.50;5.63;;;17.10;99.90;;;;;;5028884;28;20045;-71
2021/06/22 09:51:45;;;;;;;9.43;5.75;;;17.10;99.90;;;;;;5031709;28;20053;-71
2021/06/22 09:54:16;;;;;;;10.63;5.72;;;17.10;99.90;;;;;;5033502;28;20065;-72
2021/06/22 09:57:04;;;;;;;14.95;5.90;;;17.10;99.90;;;;;;5032197;28;20111;-72
2021/06/22 09:59:46;;;;;;;9.55;5.53;;;17.20;99.90;;;;;;5032545;28;20519;-72
2021/06/22 10:02:13;;;;;;;11.13;5.88;;;17.20;99.90;;;;;;5024361;28;20640;-72
2021/06/22 10:04:45;;;;;;;9.70;5.47;;;17.30;99.90;;;;;;5027979;28;20467;-72
2021/06/22 10:07:14;;;;;;;12.30;5.95;;;17.40;99.90;;;;;;5027543;28;20588;-72
2021/06/22 10:09:41;;;;;;;12.95;6.95;;;17.50;99.90;;;;;;5029819;28;20077;-72
2021/06/22 10:12:14;;;;;;;11.45;7.20;;;17.60;99.90;;;;;;5029544;28;20100;-72
2021/06/22 10:14:47;;;;;;;15.02;7.53;;;17.70;99.90;;;;;;5027328;28;20052;-72
2021/06/22 10:17:21;;;;;;;14.05;6.97;;;17.70;99.90;;;;;;5026070;28;20041;-72
2021/06/22 10:19:56;;;;;;;10.70;7.00;;;17.70;99.90;;;;;;5044458;28;20409;-72
2021/06/22 10:22:26;;;;;;;12.88;6.50;;;17.80;99.90;;;;;;5044112;28;20438;-72
2021/06/22 10:24:56;;;;;;;11.57;7.03;;;17.80;99.90;;;;;;5022534;28;20133;-72
2021/06/22 10:27:24;;;;;;;10.55;7.43;;;17.80;99.90;;;;;;5043589;28;20076;-72
2021/06/22 10:29:53;;;;;;;;;;;17.90;99.90;;;;;;5028915;28;20127;-72
2021/06/22 10:32:21;;;;;;;14.68;7.10;;;18.00;99.90;;;;;;5031008;28;20319;-72
2021/06/22 10:34:51;;;;;;;12.50;8.02;;;18.00;99.90;;;;;;5019358;28;20407;-72
2021/06/22 10:37:33;;;;;;;13.55;8.27;;;18.00;99.90;;;;;;5032093;28;20570;-72
2021/06/22 10:40:11;;;;;;;15.43;8.27;;;18.00;99.90;;;;;;5028456;28;20056;-72
2021/06/22 10:42:43;;;;;;;9.85;7.20;;;18.10;99.90;;;;;;5048345;28;20132;-72
2021/06/22 10:45:11;;;;;;;13.07;7.38;;;18.10;99.90;;;;;;5031679;28;20095;-72
2021/06/22 10:47:39;;;;;;;9.95;7.13;;;18.10;99.90;;;;;;5030560;28;20084;-73
2021/06/22 10:50:11;;;;;;;11.88;7.20;;;18.10;99.90;;;;;;5037169;28;20127;-71
2021/06/22 10:52:48;;;;;;;11.35;7.32;;;18.10;99.90;;;;;;5035884;28;20072;-72
2021/06/22 10:55:30;;;;;;;12.30;6.50;;;18.10;99.90;;;;;;5034260;28;20065;-72
2021/06/22 10:57:57;;;;;;;11.43;6.53;;;18.10;99.90;;;;;;5037490;28;20888;-71
2021/06/22 11:00:25;;;;;;;11.00;6.55;;;18.10;99.90;;;;;;5038973;28;20134;-72
2021/06/22 11:03:03;;;;;;;10.18;6.75;;;18.00;99.90;;;;;;5032522;28;20135;-72
2021/06/22 11:05:32;;;;;;;10.50;6.70;;;18.00;99.90;;;;;;5034503;28;25019;-72
2021/06/22 11:08:14;;;;;;;11.13;6.57;;;18.00;99.90;;;;;;5035542;28;20064;-72
2021/06/22 11:11:08;;;;;;;12.55;6.82;;;17.90;99.90;;;;;;5036317;28;20077;-72
2021/06/22 11:13:36;;;;;;;14.77;6.60;;;17.90;99.90;;;;;;5037905;28;20145;-73
2021/06/22 11:16:06;;;;;;;11.85;7.10;;;17.90;99.90;;;;;;5048848;28;20138;-72
2021/06/22 11:18:57;;;;;;;9.88;7.03;;;17.90;99.90;;;;;;5034753;28;20049;-73
2021/06/22 11:21:37;;;;;;;9.73;7.15;;;17.90;99.90;;;;;;5039618;28;20397;-72
2021/06/22 11:24:15;;;;;;;12.77;7.28;;;18.00;99.90;;;;;;5033396;28;20450;-72
2021/06/22 11:26:42;;;;;;;14.35;6.80;;;18.00;99.90;;;;;;5034092;28;20044;-72
2021/06/22 11:29:10;;;;;;;14.70;7.13;;;18.10;99.90;;;;;;5035683;28;20085;-72
2021/06/22 11:31:46;;;;;;;9.65;6.35;;;18.10;99.90;;;;;;5038280;28;20148;-71
2021/06/22 11:34:24;;;;;;;10.45;6.82;;;18.20;99.90;;;;;;5030680;28;20056;-72
2021/06/22 11:36:56;;;;;;;10.65;5.80;;;18.20;99.90;;;;;;5033783;28;24932;-72
2021/06/22 11:39:30;;;;;;;10.00;6.60;;;18.30;99.90;;;;;;5035881;28;20084;-72
2021/06/22 11:42:09;;;;;;;9.32;6.43;;;18.40;99.90;;;;;;5032462;28;20073;-72
2021/06/22 11:44:37;;;;;;;11.15;7.07;;;18.50;99.90;;;;;;5048689;28;20049;-73
2021/06/22 11:47:04;;;;;;;;;;;18.60;99.90;;;;;;5030825;28;20520;-72
2021/06/22 11:49:48;;;;;;;11.63;6.32;;;18.70;99.90;;;;;;5032129;28;19928;-72
2021/06/22 11:52:17;;;;;;;8.48;6.65;;;18.80;99.90;;;;;;5028510;28;20077;-72
2021/06/22 11:54:51;;;;;;;12.40;6.68;;;18.90;99.90;;;;;;5033621;28;20084;-71
2021/06/22 11:57:25;;;;;;;10.65;6.22;;;19.00;99.90;;;;;;5033583;28;20139;-73
2021/06/22 11:59:56;;;;;;;11.20;6.22;;;19.10;99.90;;;;;;5033296;28;20072;-73
2021/06/22 12:02:23;;;;;;;8.52;5.82;;;19.20;99.90;;;;;;5033093;28;20133;-72
2021/06/22 12:04:50;;;;;;;11.20;6.05;;;19.20;99.90;;;;;;5031887;28;20427;-72
2021/06/22 12:07:17;;;;;;;8.80;5.82;;;19.20;99.90;;;;;;5034494;28;20080;-72
2021/06/22 12:09:45;;;;;;;8.55;5.50;;;19.20;99.90;;;;;;5017567;28;20068;-72
2021/06/22 12:12:13;;;;;;;;;;;19.20;99.90;;;;;;5034171;28;20131;-72
2021/06/22 12:14:44;;;;;;;10.00;5.60;;;19.20;99.90;;;;;;5030675;28;19929;-72
2021/06/22 12:17:18;;;;;;;9.02;5.40;;;19.20;99.90;;;;;;5030104;28;20132;-72
2021/06/22 12:19:46;;;;;;;14.05;5.70;;;19.20;99.90;;;;;;5031504;28;20048;-72
2021/06/22 12:22:15;;;;;;;;;;;19.20;99.90;;;;;;5032938;28;20077;-72
2021/06/22 12:24:44;;;;;;;10.80;6.85;;;19.20;99.90;;;;;;5032037;28;19979;-72
2021/06/22 12:27:11;;;;;;;9.55;5.07;;;19.20;99.90;;;;;;5014362;28;20132;-72
2021/06/22 12:29:42;;;;;;;9.52;5.13;;;19.20;99.90;;;;;;5034712;28;20052;-71
2021/06/22 12:32:10;;;;;;;9.30;5.47;;;19.10;99.90;;;;;;5034223;28;20434;-72
2021/06/22 12:34:40;;;;;;;12.25;5.03;;;19.10;99.90;;;;;;5030507;28;20052;-72
2021/06/22 12:37:24;;;;;;;11.32;6.40;;;19.10;99.90;;;;;;5028463;28;20056;-72
2021/06/22 12:39:51;;;;;;;10.68;5.18;;;19.10;99.90;;;;;;5028479;28;20084;-72
2021/06/22 12:42:21;;;;;;;12.87;5.40;;;19.20;99.90;;;;;;5027416;28;20072;-73
2021/06/22 12:44:48;;;;;;;9.55;5.68;;;19.20;99.90;;;;;;5048727;28;20152;-72
2021/06/22 12:47:15;;;;;;;11.75;6.40;;;19.30;99.90;;;;;;5030575;28;20041;-72
2021/06/22 12:49:44;;;;;;;10.40;5.18;;;19.30;99.90;;;;;;5047730;28;20108;-72
2021/06/22 12:52:13;;;;;;;16.23;5.57;;;19.30;99.90;;;;;;5044290;28;20552;-72
2021/06/22 12:54:40;;;;;;;12.32;5.15;;;19.30;99.90;;;;;;5029497;28;20097;-73
2021/06/22 12:57:20;;;;;;;10.13;5.30;;;19.30;99.90;;;;;;5029678;28;20107;-73